sensor_id;sensor_type;location;lat;lon;timestamp;P1;durP1;ratioP1;P2;durP2;ratioP2
12519;SDS011;6325;49.540;8.364;2022-12-07T00:01:40;6.13;;;5.50;;
12519;SDS011;6325;49.540;8.364;2022-12-07T00:04:10;5.43;;;4.93;;
12519;SDS011;6325;49.540;8.364;2022-12-07T00:06:39;6.07;;;5.47;;
12519;SDS011;6325;49.540;8.364;2022-12-07T00:09:09;5.03;;;4.60;;
12519;SDS011;6325;49.540;8.364;2022-12-07T00:11:37;5.37;;;4.87;;
12519;SDS011;6325;49.540;8.364;2022-12-07T00:14:11;9.60;;;6.63;;
12519;SDS011;6325;49.540;8.364;2022-12-07T00:16:39;8.25;;;6.70;;
12519;SDS011;6325;49.540;8.364;2022-12-07T00:19:06;8.55;;;6.35;;
12519;SDS011;6325;49.540;8.364;2022-12-07T00:21:35;6.30;;;5.70;;
12519;SDS011;6325;49.540;8.364;2022-12-07T00:24:04;5.00;;;4.50;;
12519;SDS011;6325;49.540;8.364;2022-12-07T00:26:32;4.55;;;4.15;;
12519;SDS011;6325;49.540;8.364;2022-12-07T00:29:00;4.55;;;4.15;;
12519;SDS011;6325;49.540;8.364;2022-12-07T00:31:31;4.00;;;3.70;;
12519;SDS011;6325;49.540;8.364;2022-12-07T00:34:00;4.28;;;3.97;;
12519;SDS011;6325;49.540;8.364;2022-12-07T00:36:27;4.15;;;3.75;;
12519;SDS011;6325;49.540;8.364;2022-12-07T00:38:54;4.38;;;3.97;;
12519;SDS011;6325;49.540;8.364;2022-12-07T00:41:24;3.75;;;3.45;;
12519;SDS011;6325;49.540;8.364;2022-12-07T00:43:52;4.23;;;3.93;;
12519;SDS011;6325;49.540;8.364;2022-12-07T00:46:20;3.80;;;3.50;;
12519;SDS011;6325;49.540;8.364;2022-12-07T00:48:48;4.30;;;3.90;;
12519;SDS011;6325;49.540;8.364;2022-12-07T00:51:17;4.40;;;4.00;;
12519;SDS011;6325;49.540;8.364;2022-12-07T00:53:45;4.00;;;3.70;;
12519;SDS011;6325;49.540;8.364;2022-12-07T00:56:13;3.78;;;3.47;;
12519;SDS011;6325;49.540;8.364;2022-12-07T00:58:41;3.70;;;3.50;;
12519;SDS011;6325;49.540;8.364;2022-12-07T01:01:08;3.70;;;3.40;;
12519;SDS011;6325;49.540;8.364;2022-12-07T01:03:37;3.90;;;3.60;;
12519;SDS011;6325;49.540;8.364;2022-12-07T01:06:05;3.88;;;3.58;;
12519;SDS011;6325;49.540;8.364;2022-12-07T01:08:32;3.90;;;3.60;;
12519;SDS011;6325;49.540;8.364;2022-12-07T01:11:00;5.15;;;4.75;;
12519;SDS011;6325;49.540;8.364;2022-12-07T01:13:28;4.00;;;3.70;;
12519;SDS011;6325;49.540;8.364;2022-12-07T01:15:57;3.80;;;3.60;;
12519;SDS011;6325;49.540;8.364;2022-12-07T01:18:25;5.05;;;4.65;;
12519;SDS011;6325;49.540;8.364;2022-12-07T01:20:59;4.90;;;4.50;;
12519;SDS011;6325;49.540;8.364;2022-12-07T01:23:28;5.10;;;4.70;;
12519;SDS011;6325;49.540;8.364;2022-12-07T01:25:56;5.53;;;5.03;;
12519;SDS011;6325;49.540;8.364;2022-12-07T01:28:23;5.40;;;4.90;;
12519;SDS011;6325;49.540;8.364;2022-12-07T01:30:57;4.90;;;4.60;;
12519;SDS011;6325;49.540;8.364;2022-12-07T01:33:26;5.10;;;4.70;;
12519;SDS011;6325;49.540;8.364;2022-12-07T01:35:53;4.63;;;4.30;;
12519;SDS011;6325;49.540;8.364;2022-12-07T01:38:20;4.47;;;4.07;;
12519;SDS011;6325;49.540;8.364;2022-12-07T01:40:54;4.20;;;3.90;;
12519;SDS011;6325;49.540;8.364;2022-12-07T01:43:21;4.30;;;4.00;;
12519;SDS011;6325;49.540;8.364;2022-12-07T01:45:51;4.65;;;4.25;;
12519;SDS011;6325;49.540;8.364;2022-12-07T01:48:18;4.30;;;4.00;;
12519;SDS011;6325;49.540;8.364;2022-12-07T01:50:49;4.80;;;4.40;;
12519;SDS011;6325;49.540;8.364;2022-12-07T01:53:19;4.85;;;4.45;;
12519;SDS011;6325;49.540;8.364;2022-12-07T01:55:50;5.05;;;4.60;;
12519;SDS011;6325;49.540;8.364;2022-12-07T01:58:20;5.82;;;5.32;;
12519;SDS011;6325;49.540;8.364;2022-12-07T02:00:48;4.70;;;4.30;;
12519;SDS011;6325;49.540;8.364;2022-12-07T02:03:16;4.85;;;4.45;;
12519;SDS011;6325;49.540;8.364;2022-12-07T02:05:47;5.00;;;4.60;;
12519;SDS011;6325;49.540;8.364;2022-12-07T02:08:15;4.60;;;4.23;;
12519;SDS011;6325;49.540;8.364;2022-12-07T02:10:43;5.20;;;4.80;;
12519;SDS011;6325;49.540;8.364;2022-12-07T02:13:12;5.72;;;5.13;;
12519;SDS011;6325;49.540;8.364;2022-12-07T02:15:44;4.80;;;4.40;;
12519;SDS011;6325;49.540;8.364;2022-12-07T02:18:32;4.80;;;4.40;;
12519;SDS011;6325;49.540;8.364;2022-12-07T02:21:07;5.50;;;5.00;;
12519;SDS011;6325;49.540;8.364;2022-12-07T02:23:40;6.10;;;5.57;;
12519;SDS011;6325;49.540;8.364;2022-12-07T02:26:32;4.90;;;4.50;;
12519;SDS011;6325;49.540;8.364;2022-12-07T02:29:14;5.90;;;5.40;;
12519;SDS011;6325;49.540;8.364;2022-12-07T02:31:48;5.00;;;4.60;;
12519;SDS011;6325;49.540;8.364;2022-12-07T02:34:24;5.13;;;4.72;;
12519;SDS011;6325;49.540;8.364;2022-12-07T02:36:57;4.63;;;4.23;;
12519;SDS011;6325;49.540;8.364;2022-12-07T02:39:31;4.78;;;4.40;;
12519;SDS011;6325;49.540;8.364;2022-12-07T02:42:07;5.22;;;4.82;;
12519;SDS011;6325;49.540;8.364;2022-12-07T02:44:41;5.10;;;4.60;;
12519;SDS011;6325;49.540;8.364;2022-12-07T02:47:10;4.10;;;3.80;;
12519;SDS011;6325;49.540;8.364;2022-12-07T02:49:40;5.00;;;4.60;;
12519;SDS011;6325;49.540;8.364;2022-12-07T02:52:08;3.95;;;3.65;;
12519;SDS011;6325;49.540;8.364;2022-12-07T02:54:35;4.80;;;4.40;;
12519;SDS011;6325;49.540;8.364;2022-12-07T02:57:03;4.32;;;3.97;;
12519;SDS011;6325;49.540;8.364;2022-12-07T02:59:45;4.15;;;3.85;;
12519;SDS011;6325;49.540;8.364;2022-12-07T03:02:21;4.30;;;4.00;;
12519;SDS011;6325;49.540;8.364;2022-12-07T03:04:53;4.25;;;3.92;;
12519;SDS011;6325;49.540;8.364;2022-12-07T03:07:30;4.45;;;4.07;;
12519;SDS011;6325;49.540;8.364;2022-12-07T03:10:07;3.87;;;3.57;;
12519;SDS011;6325;49.540;8.364;2022-12-07T03:12:42;4.40;;;4.00;;
12519;SDS011;6325;49.540;8.364;2022-12-07T03:15:17;4.00;;;3.70;;
12519;SDS011;6325;49.540;8.364;2022-12-07T03:17:52;4.22;;;3.92;;
12519;SDS011;6325;49.540;8.364;2022-12-07T03:20:22;4.20;;;3.90;;
12519;SDS011;6325;49.540;8.364;2022-12-07T03:22:52;4.43;;;4.13;;
12519;SDS011;6325;49.540;8.364;2022-12-07T03:25:20;4.43;;;4.03;;
12519;SDS011;6325;49.540;8.364;2022-12-07T03:27:49;4.18;;;3.88;;
12519;SDS011;6325;49.540;8.364;2022-12-07T03:30:23;4.53;;;4.13;;
12519;SDS011;6325;49.540;8.364;2022-12-07T03:32:54;4.80;;;4.40;;
12519;SDS011;6325;49.540;8.364;2022-12-07T03:35:27;4.10;;;3.80;;
12519;SDS011;6325;49.540;8.364;2022-12-07T03:37:58;4.47;;;4.18;;
12519;SDS011;6325;49.540;8.364;2022-12-07T03:40:29;4.70;;;4.30;;
12519;SDS011;6325;49.540;8.364;2022-12-07T03:42:59;4.15;;;3.85;;
12519;SDS011;6325;49.540;8.364;2022-12-07T03:45:31;4.80;;;4.40;;
12519;SDS011;6325;49.540;8.364;2022-12-07T03:48:08;4.00;;;3.70;;
12519;SDS011;6325;49.540;8.364;2022-12-07T03:50:48;4.53;;;4.22;;
12519;SDS011;6325;49.540;8.364;2022-12-07T03:53:20;4.35;;;4.00;;
12519;SDS011;6325;49.540;8.364;2022-12-07T03:55:51;4.57;;;4.20;;
12519;SDS011;6325;49.540;8.364;2022-12-07T03:58:20;4.50;;;4.10;;
12519;SDS011;6325;49.540;8.364;2022-12-07T04:00:50;4.47;;;4.15;;
12519;SDS011;6325;49.540;8.364;2022-12-07T04:03:18;4.75;;;4.35;;
12519;SDS011;6325;49.540;8.364;2022-12-07T04:05:45;4.07;;;3.78;;
12519;SDS011;6325;49.540;8.364;2022-12-07T04:08:12;4.10;;;3.80;;
12519;SDS011;6325;49.540;8.364;2022-12-07T04:10:39;4.30;;;4.00;;
12519;SDS011;6325;49.540;8.364;2022-12-07T04:13:05;4.10;;;3.80;;
12519;SDS011;6325;49.540;8.364;2022-12-07T04:15:32;4.20;;;3.90;;
12519;SDS011;6325;49.540;8.364;2022-12-07T04:18:01;4.38;;;4.07;;
12519;SDS011;6325;49.540;8.364;2022-12-07T04:20:28;3.80;;;3.50;;
12519;SDS011;6325;49.540;8.364;2022-12-07T04:22:55;4.15;;;3.85;;
12519;SDS011;6325;49.540;8.364;2022-12-07T04:25:21;4.30;;;4.00;;
12519;SDS011;6325;49.540;8.364;2022-12-07T04:27:48;4.13;;;3.83;;
12519;SDS011;6325;49.540;8.364;2022-12-07T04:30:15;3.95;;;3.65;;
12519;SDS011;6325;49.540;8.364;2022-12-07T04:32:42;4.75;;;4.35;;
12519;SDS011;6325;49.540;8.364;2022-12-07T04:35:11;3.70;;;3.50;;
12519;SDS011;6325;49.540;8.364;2022-12-07T04:37:38;3.92;;;3.63;;
12519;SDS011;6325;49.540;8.364;2022-12-07T04:40:07;4.40;;;4.10;;
12519;SDS011;6325;49.540;8.364;2022-12-07T04:42:36;4.00;;;3.70;;
12519;SDS011;6325;49.540;8.364;2022-12-07T04:45:03;4.35;;;4.05;;
12519;SDS011;6325;49.540;8.364;2022-12-07T04:47:31;4.15;;;3.85;;
12519;SDS011;6325;49.540;8.364;2022-12-07T04:49:58;4.05;;;3.75;;
12519;SDS011;6325;49.540;8.364;2022-12-07T04:52:26;5.10;;;4.60;;
12519;SDS011;6325;49.540;8.364;2022-12-07T04:54:53;4.40;;;4.10;;
12519;SDS011;6325;49.540;8.364;2022-12-07T04:57:20;4.55;;;4.18;;
12519;SDS011;6325;49.540;8.364;2022-12-07T04:59:46;4.00;;;3.70;;
12519;SDS011;6325;49.540;8.364;2022-12-07T05:02:13;3.95;;;3.65;;
12519;SDS011;6325;49.540;8.364;2022-12-07T05:04:41;4.43;;;4.10;;
12519;SDS011;6325;49.540;8.364;2022-12-07T05:07:09;4.70;;;4.30;;
12519;SDS011;6325;49.540;8.364;2022-12-07T05:09:37;4.78;;;4.38;;
12519;SDS011;6325;49.540;8.364;2022-12-07T05:12:06;4.80;;;4.40;;
12519;SDS011;6325;49.540;8.364;2022-12-07T05:14:33;4.45;;;4.15;;
12519;SDS011;6325;49.540;8.364;2022-12-07T05:17:00;4.68;;;4.30;;
12519;SDS011;6325;49.540;8.364;2022-12-07T05:19:27;5.10;;;4.70;;
12519;SDS011;6325;49.540;8.364;2022-12-07T05:21:54;4.43;;;4.13;;
12519;SDS011;6325;49.540;8.364;2022-12-07T05:24:23;3.97;;;3.67;;
12519;SDS011;6325;49.540;8.364;2022-12-07T05:26:51;4.10;;;3.80;;
12519;SDS011;6325;49.540;8.364;2022-12-07T05:29:18;4.28;;;3.97;;
12519;SDS011;6325;49.540;8.364;2022-12-07T05:31:45;4.38;;;3.97;;
12519;SDS011;6325;49.540;8.364;2022-12-07T05:34:12;4.25;;;3.95;;
12519;SDS011;6325;49.540;8.364;2022-12-07T05:36:39;3.92;;;3.63;;
12519;SDS011;6325;49.540;8.364;2022-12-07T05:39:06;5.18;;;4.78;;
12519;SDS011;6325;49.540;8.364;2022-12-07T05:41:34;4.30;;;4.00;;
12519;SDS011;6325;49.540;8.364;2022-12-07T05:44:20;4.82;;;4.43;;
12519;SDS011;6325;49.540;8.364;2022-12-07T05:46:47;4.80;;;4.40;;
12519;SDS011;6325;49.540;8.364;2022-12-07T05:49:13;7.95;;;6.38;;
12519;SDS011;6325;49.540;8.364;2022-12-07T05:51:41;8.43;;;6.60;;
12519;SDS011;6325;49.540;8.364;2022-12-07T05:54:08;6.60;;;5.60;;
12519;SDS011;6325;49.540;8.364;2022-12-07T05:56:35;4.67;;;4.27;;
12519;SDS011;6325;49.540;8.364;2022-12-07T05:59:03;4.30;;;4.00;;
12519;SDS011;6325;49.540;8.364;2022-12-07T06:01:49;4.50;;;4.20;;
12519;SDS011;6325;49.540;8.364;2022-12-07T06:04:17;4.53;;;4.13;;
12519;SDS011;6325;49.540;8.364;2022-12-07T06:06:44;5.50;;;5.00;;
12519;SDS011;6325;49.540;8.364;2022-12-07T06:09:11;4.97;;;4.57;;
12519;SDS011;6325;49.540;8.364;2022-12-07T06:11:38;5.15;;;4.75;;
12519;SDS011;6325;49.540;8.364;2022-12-07T06:14:23;5.17;;;4.77;;
12519;SDS011;6325;49.540;8.364;2022-12-07T06:16:51;4.97;;;4.57;;
12519;SDS011;6325;49.540;8.364;2022-12-07T06:19:18;4.35;;;4.05;;
12519;SDS011;6325;49.540;8.364;2022-12-07T06:21:45;4.30;;;4.00;;
12519;SDS011;6325;49.540;8.364;2022-12-07T06:24:12;4.97;;;4.57;;
12519;SDS011;6325;49.540;8.364;2022-12-07T06:26:40;5.82;;;5.25;;
12519;SDS011;6325;49.540;8.364;2022-12-07T06:29:08;5.18;;;4.68;;
12519;SDS011;6325;49.540;8.364;2022-12-07T06:31:35;5.63;;;5.07;;
12519;SDS011;6325;49.540;8.364;2022-12-07T06:34:05;5.32;;;4.82;;
12519;SDS011;6325;49.540;8.364;2022-12-07T06:36:33;5.60;;;5.10;;
12519;SDS011;6325;49.540;8.364;2022-12-07T06:39:00;4.93;;;4.50;;
12519;SDS011;6325;49.540;8.364;2022-12-07T06:41:27;5.05;;;4.65;;
12519;SDS011;6325;49.540;8.364;2022-12-07T06:43:54;5.03;;;4.63;;
12519;SDS011;6325;49.540;8.364;2022-12-07T06:46:21;5.90;;;5.40;;
12519;SDS011;6325;49.540;8.364;2022-12-07T06:48:48;5.72;;;5.15;;
12519;SDS011;6325;49.540;8.364;2022-12-07T06:51:17;10.13;;;7.27;;
12519;SDS011;6325;49.540;8.364;2022-12-07T06:53:44;8.63;;;6.80;;
12519;SDS011;6325;49.540;8.364;2022-12-07T06:56:11;7.85;;;6.70;;
12519;SDS011;6325;49.540;8.364;2022-12-07T06:58:38;6.30;;;5.70;;
12519;SDS011;6325;49.540;8.364;2022-12-07T07:01:08;6.13;;;5.60;;
12519;SDS011;6325;49.540;8.364;2022-12-07T07:03:36;5.97;;;5.40;;
12519;SDS011;6325;49.540;8.364;2022-12-07T07:06:03;5.80;;;5.30;;
12519;SDS011;6325;49.540;8.364;2022-12-07T07:08:31;6.43;;;5.78;;
12519;SDS011;6325;49.540;8.364;2022-12-07T07:10:58;6.45;;;5.80;;
12519;SDS011;6325;49.540;8.364;2022-12-07T07:13:26;5.72;;;5.22;;
12519;SDS011;6325;49.540;8.364;2022-12-07T07:15:52;5.97;;;5.43;;
12519;SDS011;6325;49.540;8.364;2022-12-07T07:18:20;8.35;;;6.53;;
12519;SDS011;6325;49.540;8.364;2022-12-07T07:20:47;6.35;;;5.75;;
12519;SDS011;6325;49.540;8.364;2022-12-07T07:23:15;9.38;;;7.30;;
12519;SDS011;6325;49.540;8.364;2022-12-07T07:25:44;12.93;;;8.52;;
12519;SDS011;6325;49.540;8.364;2022-12-07T07:28:11;10.60;;;8.00;;
12519;SDS011;6325;49.540;8.364;2022-12-07T07:30:38;12.70;;;9.10;;
12519;SDS011;6325;49.540;8.364;2022-12-07T07:33:04;11.60;;;8.10;;
12519;SDS011;6325;49.540;8.364;2022-12-07T07:35:32;7.75;;;6.43;;
12519;SDS011;6325;49.540;8.364;2022-12-07T07:38:00;7.60;;;6.80;;
12519;SDS011;6325;49.540;8.364;2022-12-07T07:40:28;7.97;;;7.03;;
12519;SDS011;6325;49.540;8.364;2022-12-07T07:42:56;6.93;;;6.22;;
12519;SDS011;6325;49.540;8.364;2022-12-07T07:45:24;9.97;;;8.07;;
12519;SDS011;6325;49.540;8.364;2022-12-07T07:47:52;8.90;;;7.60;;
12519;SDS011;6325;49.540;8.364;2022-12-07T07:50:19;10.70;;;8.30;;
12519;SDS011;6325;49.540;8.364;2022-12-07T07:52:46;9.20;;;7.95;;
12519;SDS011;6325;49.540;8.364;2022-12-07T07:55:13;11.17;;;8.03;;
12519;SDS011;6325;49.540;8.364;2022-12-07T07:57:40;8.13;;;6.88;;
12519;SDS011;6325;49.540;8.364;2022-12-07T08:00:10;8.88;;;7.18;;
12519;SDS011;6325;49.540;8.364;2022-12-07T08:02:38;10.68;;;8.00;;
12519;SDS011;6325;49.540;8.364;2022-12-07T08:05:06;9.02;;;7.13;;
12519;SDS011;6325;49.540;8.364;2022-12-07T08:07:34;10.60;;;7.93;;
12519;SDS011;6325;49.540;8.364;2022-12-07T08:10:01;9.45;;;7.25;;
12519;SDS011;6325;49.540;8.364;2022-12-07T08:12:28;11.13;;;7.75;;
12519;SDS011;6325;49.540;8.364;2022-12-07T08:14:54;7.95;;;7.13;;
12519;SDS011;6325;49.540;8.364;2022-12-07T08:17:23;10.07;;;7.80;;
12519;SDS011;6325;49.540;8.364;2022-12-07T08:19:50;9.45;;;7.32;;
12519;SDS011;6325;49.540;8.364;2022-12-07T08:22:17;6.97;;;6.25;;
12519;SDS011;6325;49.540;8.364;2022-12-07T08:24:44;6.32;;;5.72;;
12519;SDS011;6325;49.540;8.364;2022-12-07T08:27:10;8.27;;;7.05;;
12519;SDS011;6325;49.540;8.364;2022-12-07T08:29:37;9.80;;;7.68;;
12519;SDS011;6325;49.540;8.364;2022-12-07T08:32:04;10.55;;;7.93;;
12519;SDS011;6325;49.540;8.364;2022-12-07T08:34:32;6.65;;;6.03;;
12519;SDS011;6325;49.540;8.364;2022-12-07T08:37:00;6.75;;;6.15;;
12519;SDS011;6325;49.540;8.364;2022-12-07T08:39:27;6.68;;;6.07;;
12519;SDS011;6325;49.540;8.364;2022-12-07T08:41:54;6.60;;;5.90;;
12519;SDS011;6325;49.540;8.364;2022-12-07T08:44:21;7.30;;;6.60;;
12519;SDS011;6325;49.540;8.364;2022-12-07T08:46:49;6.82;;;6.22;;
12519;SDS011;6325;49.540;8.364;2022-12-07T08:49:21;7.28;;;6.57;;
12519;SDS011;6325;49.540;8.364;2022-12-07T08:51:55;8.97;;;7.33;;
12519;SDS011;6325;49.540;8.364;2022-12-07T08:54:22;10.10;;;7.97;;
12519;SDS011;6325;49.540;8.364;2022-12-07T08:56:48;8.07;;;6.80;;
12519;SDS011;6325;49.540;8.364;2022-12-07T08:59:17;6.55;;;5.95;;
12519;SDS011;6325;49.540;8.364;2022-12-07T09:01:46;6.90;;;6.25;;
12519;SDS011;6325;49.540;8.364;2022-12-07T09:04:12;6.87;;;6.27;;
12519;SDS011;6325;49.540;8.364;2022-12-07T09:06:40;6.00;;;5.50;;
12519;SDS011;6325;49.540;8.364;2022-12-07T09:09:10;6.65;;;6.05;;
12519;SDS011;6325;49.540;8.364;2022-12-07T09:11:39;6.45;;;5.85;;
12519;SDS011;6325;49.540;8.364;2022-12-07T09:14:06;6.78;;;6.18;;
12519;SDS011;6325;49.540;8.364;2022-12-07T09:16:33;5.88;;;5.38;;
12519;SDS011;6325;49.540;8.364;2022-12-07T09:18:59;5.60;;;5.10;;
12519;SDS011;6325;49.540;8.364;2022-12-07T09:21:26;5.50;;;5.07;;
12519;SDS011;6325;49.540;8.364;2022-12-07T09:23:53;5.20;;;4.80;;
12519;SDS011;6325;49.540;8.364;2022-12-07T09:26:21;7.20;;;6.50;;
12519;SDS011;6325;49.540;8.364;2022-12-07T09:28:48;6.40;;;5.90;;
12519;SDS011;6325;49.540;8.364;2022-12-07T09:31:15;7.65;;;6.95;;
12519;SDS011;6325;49.540;8.364;2022-12-07T09:33:42;7.05;;;6.35;;
12519;SDS011;6325;49.540;8.364;2022-12-07T09:36:09;6.65;;;6.05;;
12519;SDS011;6325;49.540;8.364;2022-12-07T09:38:36;6.00;;;5.50;;
12519;SDS011;6325;49.540;8.364;2022-12-07T09:41:06;6.45;;;5.88;;
12519;SDS011;6325;49.540;8.364;2022-12-07T09:43:35;6.90;;;6.20;;
12519;SDS011;6325;49.540;8.364;2022-12-07T09:46:05;7.57;;;6.60;;
12519;SDS011;6325;49.540;8.364;2022-12-07T09:48:32;7.10;;;6.40;;
12519;SDS011;6325;49.540;8.364;2022-12-07T09:51:02;9.13;;;7.28;;
12519;SDS011;6325;49.540;8.364;2022-12-07T09:53:39;6.88;;;6.18;;
12519;SDS011;6325;49.540;8.364;2022-12-07T09:56:08;5.90;;;5.40;;
12519;SDS011;6325;49.540;8.364;2022-12-07T09:58:39;6.00;;;5.40;;
12519;SDS011;6325;49.540;8.364;2022-12-07T10:01:09;6.83;;;6.03;;
12519;SDS011;6325;49.540;8.364;2022-12-07T10:03:39;6.53;;;5.93;;
12519;SDS011;6325;49.540;8.364;2022-12-07T10:06:15;7.60;;;6.40;;
12519;SDS011;6325;49.540;8.364;2022-12-07T10:08:43;5.72;;;5.22;;
12519;SDS011;6325;49.540;8.364;2022-12-07T10:11:10;10.70;;;7.38;;
12519;SDS011;6325;49.540;8.364;2022-12-07T10:13:41;7.10;;;6.40;;
12519;SDS011;6325;49.540;8.364;2022-12-07T10:16:27;7.72;;;6.25;;
12519;SDS011;6325;49.540;8.364;2022-12-07T10:19:18;14.45;;;9.13;;
12519;SDS011;6325;49.540;8.364;2022-12-07T10:22:02;13.45;;;8.10;;
12519;SDS011;6325;49.540;8.364;2022-12-07T10:24:40;14.40;;;9.10;;
12519;SDS011;6325;49.540;8.364;2022-12-07T10:27:17;10.87;;;7.60;;
12519;SDS011;6325;49.540;8.364;2022-12-07T10:29:48;15.07;;;8.77;;
12519;SDS011;6325;49.540;8.364;2022-12-07T10:32:27;11.70;;;8.30;;
12519;SDS011;6325;49.540;8.364;2022-12-07T10:35:11;9.57;;;6.78;;
12519;SDS011;6325;49.540;8.364;2022-12-07T10:37:46;7.72;;;6.47;;
12519;SDS011;6325;49.540;8.364;2022-12-07T10:40:23;9.10;;;7.00;;
12519;SDS011;6325;49.540;8.364;2022-12-07T10:43:02;12.70;;;7.82;;
12519;SDS011;6325;49.540;8.364;2022-12-07T10:45:34;13.25;;;8.65;;
12519;SDS011;6325;49.540;8.364;2022-12-07T10:48:08;15.50;;;9.40;;
12519;SDS011;6325;49.540;8.364;2022-12-07T10:50:46;9.15;;;6.43;;
12519;SDS011;6325;49.540;8.364;2022-12-07T10:53:32;8.45;;;6.40;;
12519;SDS011;6325;49.540;8.364;2022-12-07T11:02:06;8.30;;;6.07;;
12519;SDS011;6325;49.540;8.364;2022-12-07T11:04:49;5.63;;;5.07;;
12519;SDS011;6325;49.540;8.364;2022-12-07T11:07:29;7.72;;;5.85;;
12519;SDS011;6325;49.540;8.364;2022-12-07T11:10:05;7.57;;;5.50;;
12519;SDS011;6325;49.540;8.364;2022-12-07T11:12:44;11.75;;;7.50;;
12519;SDS011;6325;49.540;8.364;2022-12-07T11:15:21;8.77;;;6.25;;
12519;SDS011;6325;49.540;8.364;2022-12-07T11:17:56;4.90;;;3.75;;
12519;SDS011;6325;49.540;8.364;2022-12-07T11:20:34;4.20;;;3.47;;
12519;SDS011;6325;49.540;8.364;2022-12-07T11:23:12;3.10;;;2.80;;
12519;SDS011;6325;49.540;8.364;2022-12-07T11:25:46;2.25;;;2.15;;
12519;SDS011;6325;49.540;8.364;2022-12-07T11:28:22;2.40;;;2.20;;
12519;SDS011;6325;49.540;8.364;2022-12-07T11:31:00;2.60;;;2.40;;
12519;SDS011;6325;49.540;8.364;2022-12-07T11:33:37;2.60;;;2.40;;
12519;SDS011;6325;49.540;8.364;2022-12-07T11:36:13;2.90;;;2.53;;
12519;SDS011;6325;49.540;8.364;2022-12-07T11:38:54;6.93;;;4.65;;
12519;SDS011;6325;49.540;8.364;2022-12-07T11:41:26;6.45;;;4.90;;
12519;SDS011;6325;49.540;8.364;2022-12-07T11:43:58;10.40;;;6.15;;
12519;SDS011;6325;49.540;8.364;2022-12-07T11:46:37;7.73;;;4.80;;
12519;SDS011;6325;49.540;8.364;2022-12-07T11:49:13;7.07;;;5.00;;
12519;SDS011;6325;49.540;8.364;2022-12-07T11:51:51;6.82;;;4.60;;
12519;SDS011;6325;49.540;8.364;2022-12-07T11:54:24;5.45;;;4.22;;
12519;SDS011;6325;49.540;8.364;2022-12-07T11:56:59;6.15;;;4.95;;
12519;SDS011;6325;49.540;8.364;2022-12-07T11:59:36;9.07;;;6.05;;
12519;SDS011;6325;49.540;8.364;2022-12-07T12:02:12;6.72;;;4.70;;
12519;SDS011;6325;49.540;8.364;2022-12-07T12:04:47;7.88;;;5.68;;
12519;SDS011;6325;49.540;8.364;2022-12-07T12:07:20;4.72;;;4.28;;
12519;SDS011;6325;49.540;8.364;2022-12-07T12:09:49;4.35;;;3.63;;
12519;SDS011;6325;49.540;8.364;2022-12-07T12:12:27;4.10;;;3.70;;
12519;SDS011;6325;49.540;8.364;2022-12-07T12:15:15;3.77;;;3.47;;
12519;SDS011;6325;49.540;8.364;2022-12-07T12:18:01;9.38;;;5.97;;
12519;SDS011;6325;49.540;8.364;2022-12-07T12:20:43;11.95;;;6.68;;
12519;SDS011;6325;49.540;8.364;2022-12-07T12:23:15;5.95;;;4.82;;
12519;SDS011;6325;49.540;8.364;2022-12-07T12:25:46;5.43;;;4.07;;
12519;SDS011;6325;49.540;8.364;2022-12-07T12:28:18;3.80;;;3.30;;
12519;SDS011;6325;49.540;8.364;2022-12-07T12:31:04;3.00;;;2.80;;
12519;SDS011;6325;49.540;8.364;2022-12-07T12:33:33;4.40;;;3.47;;
12519;SDS011;6325;49.540;8.364;2022-12-07T12:36:23;6.22;;;4.60;;
12519;SDS011;6325;49.540;8.364;2022-12-07T12:39:07;9.55;;;5.90;;
12519;SDS011;6325;49.540;8.364;2022-12-07T12:41:54;6.90;;;4.40;;
12519;SDS011;6325;49.540;8.364;2022-12-07T12:50:24;6.30;;;4.28;;
12519;SDS011;6325;49.540;8.364;2022-12-07T12:55:56;9.57;;;5.50;;
12519;SDS011;6325;49.540;8.364;2022-12-07T12:58:44;9.02;;;5.10;;
12519;SDS011;6325;49.540;8.364;2022-12-07T13:04:17;3.42;;;3.13;;
12519;SDS011;6325;49.540;8.364;2022-12-07T13:06:58;2.70;;;2.45;;
12519;SDS011;6325;49.540;8.364;2022-12-07T13:09:27;5.75;;;3.85;;
12519;SDS011;6325;49.540;8.364;2022-12-07T13:11:59;4.27;;;3.07;;
12519;SDS011;6325;49.540;8.364;2022-12-07T13:23:29;3.20;;;2.90;;
12519;SDS011;6325;49.540;8.364;2022-12-07T13:26:04;3.30;;;3.00;;
12519;SDS011;6325;49.540;8.364;2022-12-07T13:28:40;3.20;;;2.60;;
12519;SDS011;6325;49.540;8.364;2022-12-07T13:31:11;2.58;;;2.38;;
12519;SDS011;6325;49.540;8.364;2022-12-07T13:33:42;3.72;;;2.50;;
12519;SDS011;6325;49.540;8.364;2022-12-07T13:36:12;2.70;;;2.17;;
12519;SDS011;6325;49.540;8.364;2022-12-07T13:38:48;2.80;;;2.20;;
12519;SDS011;6325;49.540;8.364;2022-12-07T13:41:19;2.10;;;2.00;;
12519;SDS011;6325;49.540;8.364;2022-12-07T13:43:48;2.38;;;1.83;;
12519;SDS011;6325;49.540;8.364;2022-12-07T13:46:17;2.03;;;1.93;;
12519;SDS011;6325;49.540;8.364;2022-12-07T13:48:50;2.00;;;1.80;;
12519;SDS011;6325;49.540;8.364;2022-12-07T13:51:18;1.92;;;1.77;;
12519;SDS011;6325;49.540;8.364;2022-12-07T13:53:48;3.28;;;2.20;;
12519;SDS011;6325;49.540;8.364;2022-12-07T13:56:16;2.45;;;1.88;;
12519;SDS011;6325;49.540;8.364;2022-12-07T13:58:47;2.15;;;1.95;;
12519;SDS011;6325;49.540;8.364;2022-12-07T14:01:14;2.17;;;1.98;;
12519;SDS011;6325;49.540;8.364;2022-12-07T14:03:41;5.95;;;3.65;;
12519;SDS011;6325;49.540;8.364;2022-12-07T14:06:16;3.63;;;2.80;;
12519;SDS011;6325;49.540;8.364;2022-12-07T14:08:46;3.13;;;2.53;;
12519;SDS011;6325;49.540;8.364;2022-12-07T14:11:14;2.97;;;2.65;;
12519;SDS011;6325;49.540;8.364;2022-12-07T14:13:58;2.60;;;2.13;;
12519;SDS011;6325;49.540;8.364;2022-12-07T14:16:27;2.22;;;2.00;;
12519;SDS011;6325;49.540;8.364;2022-12-07T14:18:56;2.90;;;2.30;;
12519;SDS011;6325;49.540;8.364;2022-12-07T14:21:27;2.30;;;2.10;;
12519;SDS011;6325;49.540;8.364;2022-12-07T14:24:02;3.35;;;2.33;;
12519;SDS011;6325;49.540;8.364;2022-12-07T14:26:40;2.03;;;1.90;;
12519;SDS011;6325;49.540;8.364;2022-12-07T14:29:20;2.35;;;2.15;;
12519;SDS011;6325;49.540;8.364;2022-12-07T14:31:49;2.35;;;2.15;;
12519;SDS011;6325;49.540;8.364;2022-12-07T14:34:15;2.22;;;1.90;;
12519;SDS011;6325;49.540;8.364;2022-12-07T14:36:42;2.10;;;2.00;;
12519;SDS011;6325;49.540;8.364;2022-12-07T14:39:09;2.40;;;2.20;;
12519;SDS011;6325;49.540;8.364;2022-12-07T14:41:36;4.50;;;3.10;;
12519;SDS011;6325;49.540;8.364;2022-12-07T14:44:20;3.17;;;2.83;;
12519;SDS011;6325;49.540;8.364;2022-12-07T14:46:48;3.00;;;2.70;;
12519;SDS011;6325;49.540;8.364;2022-12-07T14:49:15;3.33;;;3.03;;
12519;SDS011;6325;49.540;8.364;2022-12-07T14:51:43;2.72;;;2.53;;
12519;SDS011;6325;49.540;8.364;2022-12-07T14:54:14;3.20;;;2.90;;
12519;SDS011;6325;49.540;8.364;2022-12-07T14:56:43;3.83;;;3.40;;
12519;SDS011;6325;49.540;8.364;2022-12-07T14:59:10;4.32;;;3.90;;
12519;SDS011;6325;49.540;8.364;2022-12-07T15:01:39;6.18;;;5.13;;
12519;SDS011;6325;49.540;8.364;2022-12-07T15:04:06;7.50;;;5.63;;
12519;SDS011;6325;49.540;8.364;2022-12-07T15:06:33;8.80;;;5.83;;
12519;SDS011;6325;49.540;8.364;2022-12-07T15:09:02;11.23;;;6.47;;
12519;SDS011;6325;49.540;8.364;2022-12-07T15:11:29;7.55;;;4.60;;
12519;SDS011;6325;49.540;8.364;2022-12-07T15:13:56;7.53;;;4.70;;
12519;SDS011;6325;49.540;8.364;2022-12-07T15:16:36;7.53;;;4.70;;
12519;SDS011;6325;49.540;8.364;2022-12-07T15:19:07;11.43;;;6.30;;
12519;SDS011;6325;49.540;8.364;2022-12-07T15:21:39;13.57;;;6.60;;
12519;SDS011;6325;49.540;8.364;2022-12-07T15:24:07;14.00;;;7.22;;
12519;SDS011;6325;49.540;8.364;2022-12-07T15:26:35;9.00;;;5.32;;
12519;SDS011;6325;49.540;8.364;2022-12-07T15:29:02;8.10;;;5.40;;
12519;SDS011;6325;49.540;8.364;2022-12-07T15:31:30;6.28;;;4.50;;
12519;SDS011;6325;49.540;8.364;2022-12-07T15:33:57;5.10;;;4.15;;
12519;SDS011;6325;49.540;8.364;2022-12-07T15:36:26;3.53;;;3.20;;
12519;SDS011;6325;49.540;8.364;2022-12-07T15:38:56;6.68;;;4.50;;
12519;SDS011;6325;49.540;8.364;2022-12-07T15:41:23;5.30;;;4.13;;
12519;SDS011;6325;49.540;8.364;2022-12-07T15:43:52;5.80;;;4.40;;
12519;SDS011;6325;49.540;8.364;2022-12-07T15:46:37;5.13;;;3.80;;
12519;SDS011;6325;49.540;8.364;2022-12-07T15:49:06;3.30;;;3.00;;